createdAt,value
2022-08-01T00:02:02.639Z,98126.37
2022-08-01T00:07:07.169Z,98124.34
2022-08-01T00:12:11.901Z,98121.49
2022-08-01T00:17:16.430Z,98122.08
2022-08-01T00:22:21.076Z,98121.41
2022-08-01T00:27:25.235Z,98117.95
2022-08-01T00:32:31.480Z,98117.09
2022-08-01T00:37:35.645Z,98115.44
2022-08-01T00:42:43.529Z,98112.58
2022-08-01T00:47:48.370Z,98112.81
2022-08-01T00:53:00.270Z,98110.83
2022-08-01T00:58:06.536Z,98108.52
2022-08-01T01:03:11.068Z,98107.34
2022-08-01T01:08:18.627Z,98116.25
2022-08-01T01:13:27.621Z,98120.10
2022-08-01T01:18:34.281Z,98120.41
2022-08-01T01:23:47.282Z,98123.13
2022-08-01T01:29:08.201Z,98113.33
2022-08-01T01:34:13.188Z,98113.33
2022-08-01T01:39:17.839Z,98112.65
2022-08-01T01:44:22.049Z,98108.08
2022-08-01T01:49:27.527Z,98105.42
2022-08-01T01:54:33.471Z,98104.13
2022-08-01T01:59:40.051Z,98103.89
2022-08-01T02:04:45.202Z,98103.27
2022-08-01T02:09:50.121Z,98100.55
2022-08-01T02:14:55.271Z,98098.75
2022-08-01T02:19:59.741Z,98100.33
2022-08-01T02:25:05.112Z,98098.22
2022-08-01T02:30:11.932Z,98095.33
2022-08-01T02:35:21.042Z,98098.17
2022-08-01T02:40:25.992Z,98094.90
2022-08-01T02:45:31.180Z,98091.16
2022-08-01T02:50:36.203Z,98097.77
2022-08-01T02:55:41.225Z,98101.90
2022-08-01T03:00:46.528Z,98100.44
2022-08-01T03:05:52.760Z,98100.79
2022-08-01T03:10:57.953Z,98103.00
2022-08-01T03:16:04.143Z,98102.05
2022-08-01T03:21:08.554Z,98106.81
2022-08-01T03:26:13.406Z,98108.95
2022-08-01T03:31:18.102Z,98105.09
2022-08-01T03:36:26.404Z,98106.22
2022-08-01T03:41:34.400Z,98107.02
2022-08-01T03:46:43.983Z,98106.41
2022-08-01T03:51:50.155Z,98110.91
2022-08-01T03:56:54.412Z,98114.00
2022-08-01T04:01:59.524Z,98119.77
2022-08-01T04:07:07.624Z,98126.72
2022-08-01T04:12:12.551Z,98127.84
2022-08-01T04:17:17.123Z,98132.89
2022-08-01T04:22:21.471Z,98132.30
2022-08-01T04:27:50.884Z,98129.66
2022-08-01T04:32:55.693Z,98134.08
2022-08-01T04:38:02.531Z,98124.70
2022-08-01T04:43:06.952Z,98122.37
2022-08-01T04:48:11.652Z,98119.00
2022-08-01T04:53:17.451Z,98124.13
2022-08-01T04:58:22.102Z,98126.45
2022-08-01T05:03:26.344Z,98125.65
2022-08-01T05:08:30.694Z,98125.45
2022-08-01T05:13:34.771Z,98125.39
2022-08-01T05:18:38.966Z,98124.81
2022-08-01T05:23:43.687Z,98120.64
2022-08-01T05:28:47.913Z,98120.70
2022-08-01T05:33:52.268Z,98122.94
2022-08-01T05:38:56.614Z,98126.65
2022-08-01T05:44:01.264Z,98129.73
2022-08-01T05:49:06.174Z,98128.39
2022-08-01T05:54:10.712Z,98130.39
2022-08-01T05:59:14.854Z,98124.52
2022-08-01T06:04:19.180Z,98131.47
2022-08-01T06:09:23.482Z,98132.08
2022-08-01T06:14:27.542Z,98131.55
2022-08-01T06:19:31.824Z,98133.98
2022-08-01T06:24:35.878Z,98133.56
2022-08-01T06:29:40.532Z,98135.41
2022-08-01T06:34:56.267Z,98133.23
2022-08-01T06:40:03.717Z,98129.91
2022-08-01T06:45:09.322Z,98139.45
2022-08-01T06:50:14.853Z,98143.08
2022-08-01T06:55:18.802Z,98149.52
2022-08-01T07:00:23.721Z,98145.12
2022-08-01T07:05:27.783Z,98141.77
2022-08-01T07:10:32.283Z,98138.71
2022-08-01T07:15:36.763Z,98137.05
2022-08-01T07:20:50.295Z,98139.02
2022-08-01T07:26:00.736Z,98137.15
2022-08-01T07:31:05.222Z,98133.73
2022-08-01T07:36:10.042Z,98129.57
2022-08-01T07:41:14.203Z,98131.05
2022-08-01T07:46:18.655Z,98126.89
2022-08-01T07:51:22.773Z,98126.56
2022-08-01T07:56:27.302Z,98126.74
2022-08-01T08:01:31.770Z,98117.73
2022-08-01T08:06:36.082Z,98117.06
2022-08-01T08:11:42.463Z,98115.79
2022-08-01T08:16:50.021Z,98115.73
2022-08-01T08:21:54.103Z,98122.77
2022-08-01T08:26:59.633Z,98122.00
2022-08-01T08:32:04.244Z,98126.21
2022-08-01T08:37:09.477Z,98123.61
2022-08-01T08:42:14.103Z,98127.80
2022-08-01T08:47:20.781Z,98130.61
2022-08-01T08:52:25.943Z,98138.15
2022-08-01T08:57:30.281Z,98137.52
2022-08-01T09:02:34.310Z,98140.45
2022-08-01T09:07:38.533Z,98142.78
2022-08-01T09:13:02.533Z,98144.67
2022-08-01T09:18:07.173Z,98149.42
2022-08-01T09:23:32.712Z,98156.67
2022-08-01T09:28:37.300Z,98157.66
2022-08-01T09:33:54.613Z,98157.33
2022-08-01T09:39:13.564Z,98155.66
2022-08-01T09:44:19.273Z,98157.67
2022-08-01T09:49:50.571Z,98163.45
2022-08-01T09:54:59.234Z,98164.27
2022-08-01T10:00:04.475Z,98169.48
2022-08-01T10:05:10.748Z,98167.62
2022-08-01T10:10:23.303Z,98169.19
2022-08-01T10:15:37.465Z,98168.98
2022-08-01T10:20:42.046Z,98166.57
2022-08-01T10:25:49.014Z,98161.66
2022-08-01T10:30:53.883Z,98157.77
2022-08-01T10:35:58.794Z,98160.77
2022-08-01T10:41:06.429Z,98154.95
2022-08-01T10:46:12.350Z,98155.05
2022-08-01T10:51:17.998Z,98149.67
2022-08-01T10:56:27.147Z,98153.62
2022-08-01T11:01:33.034Z,98152.89
2022-08-01T11:06:47.264Z,98153.38
2022-08-01T11:12:02.643Z,98151.81
2022-08-01T11:17:24.494Z,98149.48
2022-08-01T11:22:29.212Z,98153.80
2022-08-01T11:27:34.519Z,98157.06
2022-08-01T11:33:10.663Z,98153.55
2022-08-01T11:38:27.483Z,98155.67
2022-08-01T11:43:31.812Z,98152.00
2022-08-01T11:48:36.694Z,98150.52
2022-08-01T11:53:47.412Z,98150.11
2022-08-01T11:58:51.789Z,98142.24
2022-08-01T12:03:57.801Z,98148.34
2022-08-01T12:09:15.913Z,98142.15
2022-08-01T12:14:23.083Z,98146.19
2022-08-01T12:19:27.042Z,98145.42
2022-08-01T12:24:31.373Z,98141.85
2022-08-01T12:29:36.412Z,98137.04
2022-08-01T12:34:40.901Z,98137.44
2022-08-01T12:39:45.506Z,98132.20
2022-08-01T12:44:52.802Z,98137.57
2022-08-01T12:49:56.740Z,98133.26
2022-08-01T12:55:09.979Z,98126.95
2022-08-01T13:00:16.082Z,98126.73
2022-08-01T13:05:20.373Z,98127.10
2022-08-01T13:10:28.863Z,98122.38
2022-08-01T13:15:33.623Z,98120.65
2022-08-01T13:20:37.989Z,98121.42
2022-08-01T13:25:53.056Z,98125.34
2022-08-01T13:30:58.663Z,98118.98
2022-08-01T13:36:02.872Z,98121.87
2022-08-01T13:41:07.513Z,98121.65
2022-08-01T13:46:11.743Z,98123.75
2022-08-01T13:51:22.738Z,98121.85
2022-08-01T13:56:28.241Z,98115.27
2022-08-01T14:01:34.647Z,98117.75
2022-08-01T14:06:39.134Z,98111.87
2022-08-01T14:11:46.125Z,98113.02
2022-08-01T14:16:50.502Z,98109.83
2022-08-01T14:21:55.302Z,98118.02
2022-08-01T14:26:59.636Z,98119.15
2022-08-01T14:32:04.408Z,98122.11
2022-08-01T14:37:08.982Z,98119.25
2022-08-01T14:42:14.452Z,98122.77
2022-08-01T14:47:21.778Z,98129.94
2022-08-01T14:52:26.873Z,98129.00
2022-08-01T14:57:31.222Z,98129.23
2022-08-01T15:02:35.420Z,98132.38
2022-08-01T15:07:43.752Z,98130.42
2022-08-01T15:12:56.722Z,98130.23
2022-08-01T15:18:00.913Z,98134.27
2022-08-01T15:23:05.150Z,98132.52
2022-08-01T15:28:09.955Z,98133.47
2022-08-01T15:33:14.312Z,98134.44
2022-08-01T15:38:19.910Z,98140.90
2022-08-01T15:43:23.941Z,98138.81
2022-08-01T15:48:31.274Z,98141.21
2022-08-01T15:53:35.366Z,98140.67
2022-08-01T15:58:39.604Z,98140.17
2022-08-01T16:03:43.868Z,98130.16
2022-08-01T16:08:47.969Z,98138.64
2022-08-01T16:13:52.192Z,98142.10
2022-08-01T16:18:56.644Z,98147.79
2022-08-01T16:24:00.664Z,98148.67
2022-08-01T16:29:04.792Z,98149.29
2022-08-01T16:34:09.614Z,98151.14
2022-08-01T16:39:18.445Z,98160.99
2022-08-01T16:44:33.172Z,98159.47
2022-08-01T16:49:38.727Z,98159.92
2022-08-01T16:54:43.242Z,98160.41
2022-08-01T16:59:47.322Z,98156.70
2022-08-01T17:04:51.592Z,98160.96
2022-08-01T17:09:55.483Z,98163.77
2022-08-01T17:14:59.963Z,98164.17
2022-08-01T17:20:04.543Z,98166.57
2022-08-01T17:25:09.490Z,98172.85
2022-08-01T17:30:20.632Z,98175.37
2022-08-01T17:35:25.439Z,98173.73
2022-08-01T17:40:45.137Z,98183.95
2022-08-01T17:45:53.134Z,98184.41
2022-08-01T17:50:58.193Z,98191.55
2022-08-01T17:56:05.293Z,98192.39
2022-08-01T18:01:09.702Z,98194.84
2022-08-01T18:06:14.488Z,98196.70
2022-08-01T18:11:20.000Z,98205.21
2022-08-01T18:16:25.453Z,98213.71
2022-08-01T18:21:31.842Z,98216.85
2022-08-01T18:26:36.173Z,98215.67
2022-08-01T18:31:40.505Z,98221.27
2022-08-01T18:36:44.845Z,98227.20
2022-08-01T18:41:49.272Z,98227.55
2022-08-01T18:46:54.595Z,98232.98
2022-08-01T18:51:58.790Z,98240.66
2022-08-01T18:57:03.144Z,98251.27
2022-08-01T19:02:07.740Z,98252.20
2022-08-01T19:07:11.852Z,98253.87
2022-08-01T19:12:16.320Z,98259.37
2022-08-01T19:17:20.932Z,98262.50
2022-08-01T19:22:26.503Z,98261.78
2022-08-01T19:27:32.643Z,98261.98
2022-08-01T19:32:36.880Z,98260.77
2022-08-01T19:37:45.477Z,98265.58
2022-08-01T19:42:50.214Z,98277.31
2022-08-01T19:47:57.220Z,98284.02
2022-08-01T19:53:03.004Z,98289.26
2022-08-01T20:03:35.354Z,98296.02
2022-08-01T20:08:39.625Z,98297.52
2022-08-01T20:13:44.341Z,98303.65
2022-08-01T20:18:48.569Z,98317.42
2022-08-01T20:24:02.728Z,98322.80
2022-08-01T20:29:07.421Z,98320.92
2022-08-01T20:34:15.882Z,98322.19
2022-08-01T20:39:21.402Z,98319.83
2022-08-01T20:44:27.683Z,98323.34
2022-08-01T20:49:32.621Z,98320.95
2022-08-01T20:54:36.843Z,98321.26
2022-08-01T20:59:55.694Z,98323.27
2022-08-01T21:05:04.172Z,98318.52
2022-08-01T21:10:09.028Z,98317.90
2022-08-01T21:15:15.728Z,98318.33
2022-08-01T21:20:20.431Z,98317.00
2022-08-01T21:25:27.115Z,98317.63
2022-08-01T21:30:31.893Z,98324.57
2022-08-01T21:35:37.294Z,98333.64
2022-08-01T21:40:41.984Z,98337.99
2022-08-01T21:45:58.075Z,98336.05
2022-08-01T21:51:06.426Z,98338.98
2022-08-01T21:56:14.579Z,98336.07
2022-08-01T22:01:20.840Z,98328.90
2022-08-01T22:06:25.643Z,98325.92
2022-08-01T22:11:30.683Z,98331.23
2022-08-01T22:16:40.696Z,98331.57
2022-08-01T22:21:45.034Z,98323.35
2022-08-01T22:26:49.465Z,98329.74
2022-08-01T22:31:56.525Z,98332.02
2022-08-01T22:37:00.386Z,98333.25
2022-08-01T22:42:11.219Z,98339.20
2022-08-01T22:47:20.534Z,98336.33
2022-08-01T22:52:25.472Z,98333.06
2022-08-01T22:57:31.478Z,98341.69
2022-08-01T23:02:37.601Z,98339.55
2022-08-01T23:07:46.305Z,98338.62
2022-08-01T23:12:50.994Z,98339.70
2022-08-01T23:17:55.463Z,98340.77
2022-08-01T23:23:00.933Z,98344.06
2022-08-01T23:28:06.339Z,98344.27
2022-08-01T23:33:10.793Z,98346.23
2022-08-01T23:38:20.307Z,98340.13
2022-08-01T23:43:24.732Z,98343.32
2022-08-01T23:48:29.296Z,98349.54
2022-08-01T23:53:35.987Z,98348.45
2022-08-01T23:58:42.570Z,98348.69
